logo
Rechercher aéroport 
image banner adimage banner adimage banner ad
image banner ad

WMKI - Ipoh / Ipoh Sultan Azlan Shah

Situé à Ipoh, Malaysia

ICAO - WMKI, IATA - IPH

Données fournies par Airmate  

Information générale

Coordonnées: N4°34'9" E101°5'35"
Élévation : 130 feet MSL.
 
Voir autres Aéroports à Perak

Données opérationnelles

Special qualification required
Heure actuelle UTC:
Heure actuelle locale:
Météo
METAR: WMKI 090500Z 01004KT 300V080 9000 FEW018 31/24 Q1008
TAF: TAF WMKI 082300Z 0900/0924 04005KT 8000 FEW019 BECMG 0908/0910 22008KT FEW017CB
Voir NOTAMs / SUP AIP / TFR affectant cet aéroport [VIEW]
Fréquences de communication: [VIEW]

Pistes:

Identifiant RWYQFULongueur (ft)Largeur (ft)SurfaceLDA (ft)
0441°6562148ASP
22221°6562148ASP

Coordonnées de l'aéroport

Adresse: Ipoh Malaysia

Vue satellite de WMKI